createdAt,value
2023-03-05T00:01:15.516Z,100.00
2023-03-05T00:03:45.919Z,100.00
2023-03-05T00:06:14.113Z,100.00
2023-03-05T00:08:43.315Z,100.00
2023-03-05T00:11:13.717Z,100.00
2023-03-05T00:13:42.206Z,100.00
2023-03-05T00:16:13.148Z,100.00
2023-03-05T00:18:42.703Z,100.00
2023-03-05T00:21:21.204Z,100.00
2023-03-05T00:23:50.906Z,100.00
2023-03-05T00:26:19.363Z,100.00
2023-03-05T00:28:50.438Z,100.00
2023-03-05T00:31:19.324Z,100.00
2023-03-05T00:33:47.467Z,100.00
2023-03-05T00:36:15.463Z,100.00
2023-03-05T00:38:44.934Z,100.00
2023-03-05T00:41:13.558Z,100.00
2023-03-05T00:43:41.814Z,100.00
2023-03-05T00:46:10.289Z,100.00
2023-03-05T00:48:38.397Z,100.00
2023-03-05T00:51:07.536Z,100.00
2023-03-05T00:53:35.902Z,100.00
2023-03-05T00:56:06.139Z,100.00
2023-03-05T00:58:34.171Z,100.00
2023-03-05T01:01:02.978Z,100.00
2023-03-05T01:03:32.672Z,100.00
2023-03-05T01:06:01.830Z,100.00
2023-03-05T01:08:30.148Z,100.00
2023-03-05T01:10:58.446Z,100.00
2023-03-05T01:13:27.954Z,100.00
2023-03-05T01:15:56.048Z,100.00
2023-03-05T01:18:24.113Z,100.00
2023-03-05T01:20:52.200Z,100.00
2023-03-05T01:23:20.414Z,100.00
2023-03-05T01:25:54.751Z,100.00
2023-03-05T01:28:23.000Z,100.00
2023-03-05T01:30:52.695Z,100.00
2023-03-05T01:33:20.844Z,100.00
2023-03-05T01:35:49.560Z,100.00
2023-03-05T01:38:18.417Z,100.00
2023-03-05T01:40:46.882Z,100.00
2023-03-05T01:43:25.314Z,100.00
2023-03-05T01:46:28.157Z,100.00
2023-03-05T01:49:01.921Z,100.00
2023-03-05T01:51:33.405Z,100.00
2023-03-05T01:54:03.408Z,100.00
2023-03-05T01:56:32.169Z,100.00
2023-03-05T01:59:04.373Z,100.00
2023-03-05T02:01:39.100Z,100.00
2023-03-05T02:04:09.295Z,100.00
2023-03-05T02:06:37.564Z,100.00
2023-03-05T02:09:05.817Z,100.00
2023-03-05T02:11:34.623Z,100.00
2023-03-05T02:14:03.608Z,100.00
2023-03-05T02:16:37.064Z,100.00
2023-03-05T02:19:08.902Z,100.00
2023-03-05T02:21:44.401Z,100.00
2023-03-05T02:24:16.755Z,100.00
2023-03-05T02:26:45.985Z,100.00
2023-03-05T02:29:18.672Z,100.00
2023-03-05T02:31:46.936Z,100.00
2023-03-05T02:34:16.134Z,100.00
2023-03-05T02:36:45.964Z,100.00
2023-03-05T02:39:14.055Z,100.00
2023-03-05T02:41:42.166Z,100.00
2023-03-05T02:44:10.353Z,100.00
2023-03-05T02:46:38.572Z,100.00
2023-03-05T02:49:06.632Z,100.00
2023-03-05T02:51:34.808Z,100.00
2023-03-05T02:54:04.405Z,100.00
2023-03-05T02:56:32.660Z,100.00
2023-03-05T02:59:01.103Z,100.00
2023-03-05T03:01:29.895Z,100.00
2023-03-05T03:03:58.360Z,100.00
2023-03-05T03:06:26.429Z,100.00
2023-03-05T03:08:54.443Z,100.00
2023-03-05T03:11:24.117Z,100.00
2023-03-05T03:13:52.584Z,100.00
2023-03-05T03:16:20.740Z,100.00
2023-03-05T03:18:49.129Z,100.00
2023-03-05T03:21:22.644Z,100.00
2023-03-05T03:23:50.748Z,100.00
2023-03-05T03:26:19.250Z,100.00
2023-03-05T03:28:48.875Z,100.00
2023-03-05T03:31:17.248Z,100.00
2023-03-05T03:33:45.768Z,100.00
2023-03-05T03:36:14.321Z,100.00
2023-03-05T03:38:42.762Z,100.00
2023-03-05T03:41:11.296Z,100.00
2023-03-05T03:43:39.499Z,100.00
2023-03-05T03:46:09.391Z,100.00
2023-03-05T03:48:37.519Z,100.00
2023-03-05T03:51:07.429Z,100.00
2023-03-05T03:53:35.643Z,100.00
2023-03-05T03:56:04.672Z,100.00
2023-03-05T03:58:32.825Z,100.00
2023-03-05T04:01:01.216Z,100.00
2023-03-05T04:03:30.734Z,100.00
2023-03-05T04:05:58.642Z,100.00
2023-03-05T04:08:26.724Z,100.00
2023-03-05T04:10:54.624Z,100.00
2023-03-05T04:13:22.762Z,100.00
2023-03-05T04:15:50.895Z,100.00
2023-03-05T04:18:19.357Z,100.00
2023-03-05T04:20:49.372Z,100.00
2023-03-05T04:23:17.957Z,100.00
2023-03-05T04:25:46.006Z,100.00
2023-03-05T04:28:14.310Z,100.00
2023-03-05T04:30:42.302Z,100.00
2023-03-05T04:33:10.693Z,100.00
2023-03-05T04:35:38.989Z,100.00
2023-03-05T04:38:08.475Z,100.00
2023-03-05T04:40:37.103Z,100.00
2023-03-05T04:43:05.849Z,100.00
2023-03-05T04:45:34.773Z,100.00
2023-03-05T04:48:03.017Z,100.00
2023-03-05T04:50:31.046Z,100.00
2023-03-05T04:53:00.551Z,100.00
2023-03-05T04:55:30.190Z,100.00
2023-03-05T04:57:58.369Z,100.00
2023-03-05T05:00:26.585Z,100.00
2023-03-05T05:02:54.968Z,100.00
2023-03-05T05:05:26.171Z,100.00
2023-03-05T05:07:56.560Z,100.00
2023-03-05T05:10:25.583Z,100.00
2023-03-05T05:12:55.367Z,100.00
2023-03-05T05:15:23.526Z,100.00
2023-03-05T05:17:52.663Z,100.00
2023-03-05T05:20:20.948Z,100.00
2023-03-05T05:22:49.155Z,100.00
2023-03-05T05:25:17.598Z,100.00
2023-03-05T05:27:45.762Z,100.00
2023-03-05T05:30:17.112Z,100.00
2023-03-05T05:32:45.136Z,100.00
2023-03-05T05:35:13.756Z,100.00
2023-03-05T05:37:41.927Z,100.00
2023-03-05T05:40:11.252Z,100.00
2023-03-05T05:42:40.138Z,100.00
2023-03-05T05:45:09.810Z,100.00
2023-03-05T05:47:39.372Z,100.00
2023-03-05T05:50:08.887Z,100.00
2023-03-05T05:52:36.922Z,100.00
2023-03-05T05:55:06.072Z,100.00
2023-03-05T05:57:35.080Z,100.00
2023-03-05T06:00:03.972Z,100.00
2023-03-05T06:02:32.071Z,100.00
2023-03-05T06:05:01.595Z,100.00
2023-03-05T06:07:29.785Z,100.00
2023-03-05T06:09:57.786Z,100.00
2023-03-05T06:12:25.834Z,100.00
2023-03-05T06:14:54.061Z,100.00
2023-03-05T06:17:30.288Z,100.00
2023-03-05T06:19:59.474Z,100.00
2023-03-05T06:22:29.283Z,100.00
2023-03-05T06:24:57.805Z,99.31
2023-03-05T06:27:25.944Z,100.00
2023-03-05T06:29:56.719Z,97.49
2023-03-05T06:32:24.986Z,95.96
2023-03-05T06:34:53.895Z,95.18
2023-03-05T06:37:22.049Z,92.92
2023-03-05T06:39:51.822Z,91.15
2023-03-05T06:42:20.158Z,91.87
2023-03-05T06:44:48.547Z,89.81
2023-03-05T06:47:16.827Z,89.46
2023-03-05T06:49:44.900Z,87.44
2023-03-05T06:52:13.027Z,84.62
2023-03-05T06:54:41.432Z,88.24
2023-03-05T06:57:11.795Z,85.51
2023-03-05T06:59:39.811Z,84.55
2023-03-05T07:02:08.027Z,85.00
2023-03-05T07:04:40.316Z,83.21
2023-03-05T07:07:08.524Z,83.20
2023-03-05T07:09:42.887Z,80.29
2023-03-05T07:12:13.396Z,81.93
2023-03-05T07:14:41.779Z,77.71
2023-03-05T07:17:10.417Z,77.40
2023-03-05T07:19:39.548Z,80.18
2023-03-05T07:22:08.239Z,80.13
2023-03-05T07:24:36.687Z,78.72
2023-03-05T07:27:04.859Z,78.42
2023-03-05T07:29:34.690Z,79.63
2023-03-05T07:32:02.817Z,79.91
2023-03-05T07:34:30.886Z,80.63
2023-03-05T07:36:58.821Z,78.40
2023-03-05T07:39:26.862Z,79.10
2023-03-05T07:41:55.121Z,79.51
2023-03-05T07:44:23.137Z,75.46
2023-03-05T07:46:53.025Z,77.84
2023-03-05T07:49:21.444Z,78.64
2023-03-05T07:51:49.478Z,80.46
2023-03-05T07:54:17.483Z,79.89
2023-03-05T07:56:45.482Z,79.38
2023-03-05T07:59:14.363Z,78.86
2023-03-05T08:01:42.557Z,79.49
2023-03-05T08:04:12.111Z,79.81
2023-03-05T08:06:41.943Z,81.07
2023-03-05T08:09:09.968Z,79.72
2023-03-05T08:11:37.959Z,74.73
2023-03-05T08:14:06.047Z,76.70
2023-03-05T08:16:34.133Z,76.26
2023-03-05T08:19:02.579Z,74.91
2023-03-05T08:21:35.061Z,76.34
2023-03-05T08:24:04.625Z,77.53
2023-03-05T08:26:34.660Z,80.02
2023-03-05T08:29:03.800Z,81.07
2023-03-05T08:31:33.565Z,80.81
2023-03-05T08:34:03.232Z,79.15
2023-03-05T08:36:33.695Z,79.84
2023-03-05T08:39:01.874Z,80.98
2023-03-05T08:41:30.529Z,80.16
2023-03-05T08:43:58.894Z,78.28
2023-03-05T08:46:27.826Z,74.78
2023-03-05T08:48:55.842Z,72.79
2023-03-05T08:51:26.444Z,75.41
2023-03-05T08:53:59.044Z,75.14
2023-03-05T08:56:28.633Z,75.96
2023-03-05T08:58:56.748Z,76.27
2023-03-05T09:01:25.084Z,76.96
2023-03-05T09:03:53.554Z,75.88
2023-03-05T09:06:21.986Z,76.05
2023-03-05T09:08:50.025Z,74.32
2023-03-05T09:11:19.641Z,72.21
2023-03-05T09:13:48.149Z,71.44
2023-03-05T09:16:18.340Z,72.28
2023-03-05T09:18:46.704Z,74.03
2023-03-05T09:21:17.271Z,72.65
2023-03-05T09:23:47.349Z,75.98
2023-03-05T09:26:19.594Z,75.08
2023-03-05T09:28:49.978Z,74.97
2023-03-05T09:31:18.200Z,75.88
2023-03-05T09:33:46.281Z,74.40
2023-03-05T09:36:20.967Z,73.78
2023-03-05T09:38:49.295Z,73.73
2023-03-05T09:41:23.245Z,74.11
2023-03-05T09:44:00.106Z,74.25
2023-03-05T09:46:39.476Z,74.55
2023-03-05T09:49:19.210Z,72.49
2023-03-05T09:51:51.660Z,72.09
2023-03-05T09:54:24.645Z,69.43
2023-03-05T09:56:57.502Z,68.77
2023-03-05T09:59:36.102Z,67.82
2023-03-05T10:02:15.059Z,68.31
2023-03-05T10:04:46.464Z,69.82
2023-03-05T10:07:20.839Z,69.38
2023-03-05T10:09:55.941Z,66.41
2023-03-05T10:12:31.476Z,66.01
2023-03-05T10:15:03.332Z,69.16
2023-03-05T10:17:52.453Z,68.76
2023-03-05T10:20:32.541Z,66.31
2023-03-05T10:23:10.891Z,68.03
2023-03-05T10:25:56.287Z,68.01
2023-03-05T10:28:30.843Z,68.03
2023-03-05T10:31:11.358Z,64.88
2023-03-05T10:33:47.802Z,68.24
2023-03-05T10:36:31.433Z,65.23
2023-03-05T10:39:14.799Z,65.14
2023-03-05T10:41:53.330Z,65.97
2023-03-05T10:44:27.942Z,63.55
2023-03-05T10:46:59.499Z,64.59
2023-03-05T10:49:32.883Z,66.61
2023-03-05T10:52:08.947Z,67.25
2023-03-05T10:54:41.891Z,64.01
2023-03-05T10:57:18.920Z,64.95
2023-03-05T10:59:51.731Z,63.41
2023-03-05T11:02:22.683Z,63.15
2023-03-05T11:04:51.932Z,60.86
2023-03-05T11:07:36.987Z,59.51
2023-03-05T11:10:16.117Z,59.50
2023-03-05T11:12:45.229Z,62.09
2023-03-05T11:15:31.648Z,58.25
2023-03-05T11:18:24.339Z,57.02
2023-03-05T11:20:53.216Z,57.15
2023-03-05T11:23:24.062Z,55.48
2023-03-05T11:26:03.019Z,55.83
2023-03-05T11:28:34.969Z,53.78
2023-03-05T11:31:09.859Z,56.78
2023-03-05T11:33:39.659Z,57.21
2023-03-05T11:36:24.607Z,57.71
2023-03-05T11:38:55.401Z,57.87
2023-03-05T11:41:30.138Z,56.97
2023-03-05T11:44:01.030Z,55.95
2023-03-05T11:46:30.009Z,54.93
2023-03-05T11:49:00.027Z,57.58
2023-03-05T11:51:36.113Z,57.77
2023-03-05T11:54:10.414Z,57.11
2023-03-05T11:56:39.767Z,55.52
2023-03-05T11:59:18.084Z,53.70
2023-03-05T12:01:50.015Z,56.75
2023-03-05T12:04:20.168Z,56.55
2023-03-05T12:06:50.483Z,54.49
2023-03-05T12:09:25.917Z,52.72
2023-03-05T12:12:02.510Z,55.78
2023-03-05T12:14:36.868Z,55.70
2023-03-05T12:17:11.900Z,54.97
2023-03-05T12:19:52.450Z,55.18
2023-03-05T12:22:23.768Z,55.67
2023-03-05T12:24:52.860Z,57.13
2023-03-05T12:27:35.843Z,56.52
2023-03-05T12:30:05.534Z,60.20
2023-03-05T12:33:12.605Z,53.78
2023-03-05T12:35:42.871Z,54.13
2023-03-05T12:38:32.451Z,55.27
2023-03-05T12:41:44.986Z,55.63
2023-03-05T12:44:24.148Z,56.14
2023-03-05T12:47:19.387Z,54.88
2023-03-05T12:49:51.340Z,54.65
2023-03-05T12:52:28.084Z,59.07
2023-03-05T12:55:03.891Z,58.70
2023-03-05T12:57:33.417Z,59.51
2023-03-05T13:00:11.120Z,56.65
2023-03-05T13:02:42.527Z,57.52
2023-03-05T13:05:20.949Z,56.31
2023-03-05T13:07:50.698Z,56.92
2023-03-05T13:10:25.146Z,55.21
2023-03-05T13:12:55.728Z,56.98
2023-03-05T13:15:25.926Z,55.25
2023-03-05T13:17:57.619Z,56.64
2023-03-05T13:20:34.030Z,54.41
2023-03-05T13:23:16.177Z,55.89
2023-03-05T13:25:45.039Z,54.42
2023-03-05T13:28:15.209Z,55.94
2023-03-05T13:30:47.410Z,54.20
2023-03-05T13:33:20.094Z,55.53
2023-03-05T13:35:49.185Z,52.28
2023-03-05T13:38:25.833Z,53.01
2023-03-05T13:41:10.201Z,53.26
2023-03-05T13:43:43.991Z,54.88
2023-03-05T13:46:12.813Z,55.93
2023-03-05T13:48:41.368Z,57.06
2023-03-05T13:51:12.085Z,56.45
2023-03-05T13:53:41.877Z,56.54
2023-03-05T13:56:19.750Z,57.88
2023-03-05T13:58:53.539Z,60.38
2023-03-05T14:01:30.543Z,60.86
2023-03-05T14:04:01.992Z,57.48
2023-03-05T14:06:31.191Z,62.05
2023-03-05T14:09:06.430Z,61.88
2023-03-05T14:11:35.632Z,58.08
2023-03-05T14:14:11.138Z,62.23
2023-03-05T14:16:39.516Z,58.72
2023-03-05T14:19:09.919Z,60.72
2023-03-05T14:21:46.810Z,58.31
2023-03-05T14:24:23.567Z,61.93
2023-03-05T14:26:53.788Z,62.82
2023-03-05T14:29:24.640Z,61.37
2023-03-05T14:31:54.774Z,62.10
2023-03-05T14:34:27.414Z,61.76
2023-03-05T14:36:58.009Z,63.04
2023-03-05T14:39:46.552Z,61.96
2023-03-05T14:42:34.057Z,62.17
2023-03-05T14:45:10.973Z,63.26
2023-03-05T14:47:39.313Z,62.65
2023-03-05T14:50:08.564Z,62.42
2023-03-05T14:52:37.394Z,62.93
2023-03-05T14:55:08.279Z,62.58
2023-03-05T14:57:37.320Z,62.92
2023-03-05T15:00:06.532Z,63.29
2023-03-05T15:02:34.652Z,63.25
2023-03-05T15:05:03.053Z,62.50
2023-03-05T15:07:33.052Z,61.46
2023-03-05T15:10:01.539Z,61.88
2023-03-05T15:12:31.362Z,63.36
2023-03-05T15:14:59.582Z,62.91
2023-03-05T15:17:35.652Z,64.97
2023-03-05T15:20:08.521Z,63.99
2023-03-05T15:22:37.693Z,64.01
2023-03-05T15:25:06.440Z,65.61
2023-03-05T15:27:36.360Z,65.05
2023-03-05T15:30:04.971Z,65.14
2023-03-05T15:32:33.472Z,65.72
2023-03-05T15:35:02.433Z,66.64
2023-03-05T15:37:30.617Z,66.22
2023-03-05T15:39:58.764Z,66.78
2023-03-05T15:42:26.854Z,67.85
2023-03-05T15:44:56.612Z,66.84
2023-03-05T15:47:25.221Z,67.79
2023-03-05T15:49:53.695Z,67.93
2023-03-05T15:52:21.938Z,68.31
2023-03-05T15:54:50.369Z,66.65
2023-03-05T15:57:21.969Z,66.00
2023-03-05T15:59:50.758Z,65.39
2023-03-05T16:02:20.420Z,66.87
2023-03-05T16:04:48.792Z,66.28
2023-03-05T16:07:17.539Z,65.56
2023-03-05T16:09:49.342Z,66.44
2023-03-05T16:12:21.971Z,66.24
2023-03-05T16:14:52.028Z,66.98
2023-03-05T16:17:23.854Z,67.19
2023-03-05T16:19:54.454Z,67.46
2023-03-05T16:22:23.900Z,67.89
2023-03-05T16:24:52.356Z,68.54
2023-03-05T16:27:20.479Z,69.31
2023-03-05T16:29:48.854Z,71.44
2023-03-05T16:32:17.981Z,71.34
2023-03-05T16:34:47.610Z,71.69
2023-03-05T16:37:20.604Z,71.89
2023-03-05T16:39:49.690Z,72.35
2023-03-05T16:42:18.579Z,73.08
2023-03-05T16:44:47.720Z,73.08
2023-03-05T16:47:15.919Z,73.57
2023-03-05T16:49:44.028Z,73.05
2023-03-05T16:52:19.046Z,74.31
2023-03-05T16:54:48.210Z,74.71
2023-03-05T16:57:16.749Z,74.70
2023-03-05T16:59:45.112Z,74.38
2023-03-05T17:02:15.592Z,75.15
2023-03-05T17:04:43.930Z,76.06
2023-03-05T17:07:13.822Z,75.83
2023-03-05T17:09:42.206Z,76.69
2023-03-05T17:12:10.541Z,77.60
2023-03-05T17:14:39.088Z,77.31
2023-03-05T17:17:07.206Z,77.73
2023-03-05T17:19:35.999Z,79.20
2023-03-05T17:22:04.958Z,79.01
2023-03-05T17:24:35.153Z,79.26
2023-03-05T17:27:03.419Z,78.49
2023-03-05T17:29:32.263Z,78.80
2023-03-05T17:32:00.907Z,78.92
2023-03-05T17:34:36.050Z,79.11
2023-03-05T17:37:06.558Z,78.86
2023-03-05T17:39:36.320Z,79.75
2023-03-05T17:42:04.618Z,80.07
2023-03-05T17:44:32.825Z,80.65
2023-03-05T17:47:01.277Z,80.50
2023-03-05T17:49:29.385Z,81.43
2023-03-05T17:51:57.525Z,81.85
2023-03-05T17:54:25.856Z,81.09
2023-03-05T17:56:57.295Z,81.20
2023-03-05T17:59:26.440Z,81.82
2023-03-05T18:01:54.619Z,82.40
2023-03-05T18:04:23.025Z,82.71
2023-03-05T18:06:51.135Z,83.06
2023-03-05T18:09:19.513Z,84.27
2023-03-05T18:11:47.611Z,84.83
2023-03-05T18:14:17.337Z,88.73
2023-03-05T18:16:45.580Z,89.29
2023-03-05T18:19:13.940Z,90.69
2023-03-05T18:21:42.866Z,92.26
2023-03-05T18:24:11.482Z,92.73
2023-03-05T18:26:39.613Z,94.62
2023-03-05T18:29:07.756Z,95.22
2023-03-05T18:31:37.373Z,96.10
2023-03-05T18:34:05.536Z,95.11
2023-03-05T18:36:34.382Z,92.95
2023-03-05T18:39:03.700Z,92.43
2023-03-05T18:41:32.293Z,92.94
2023-03-05T18:44:02.062Z,93.04
2023-03-05T18:46:30.544Z,92.58
2023-03-05T18:49:00.313Z,91.27
2023-03-05T18:51:29.757Z,89.95
2023-03-05T18:53:57.975Z,90.00
2023-03-05T18:56:26.656Z,89.54
2023-03-05T18:58:56.133Z,90.46
2023-03-05T19:01:25.135Z,91.44
2023-03-05T19:03:53.904Z,90.58
2023-03-05T19:06:23.455Z,91.04
2023-03-05T19:09:37.210Z,90.76
2023-03-05T19:12:06.035Z,91.49
2023-03-05T19:14:34.408Z,90.47
2023-03-05T19:17:02.478Z,89.34
2023-03-05T19:19:30.601Z,88.59
2023-03-05T19:22:00.874Z,88.67
2023-03-05T19:24:30.926Z,87.29
2023-03-05T19:27:01.332Z,88.69
2023-03-05T19:29:33.043Z,89.18
2023-03-05T19:32:01.541Z,90.37
2023-03-05T19:34:29.647Z,89.59
2023-03-05T19:36:59.824Z,91.75
2023-03-05T19:39:28.035Z,89.02
2023-03-05T19:41:56.585Z,90.48
2023-03-05T19:44:25.034Z,89.85
2023-03-05T19:46:53.471Z,88.61
2023-03-05T19:49:22.281Z,88.54
2023-03-05T19:51:51.132Z,88.37
2023-03-05T19:54:22.971Z,88.32
2023-03-05T19:56:54.929Z,87.65
2023-03-05T19:59:24.496Z,86.38
2023-03-05T20:01:53.252Z,87.16
2023-03-05T20:04:23.814Z,89.27
2023-03-05T20:06:52.416Z,87.99
2023-03-05T20:09:21.959Z,89.47
2023-03-05T20:11:51.294Z,88.68
2023-03-05T20:14:19.398Z,86.95
2023-03-05T20:16:47.471Z,86.10
2023-03-05T20:19:18.202Z,87.11
2023-03-05T20:21:46.914Z,87.38
2023-03-05T20:24:17.000Z,86.66
2023-03-05T20:26:48.397Z,86.07
2023-03-05T20:29:18.719Z,85.90
2023-03-05T20:31:47.153Z,85.47
2023-03-05T20:34:19.539Z,85.93
2023-03-05T20:36:48.013Z,86.44
2023-03-05T20:39:16.842Z,86.48
2023-03-05T20:41:47.057Z,86.85
2023-03-05T20:44:16.619Z,85.81
2023-03-05T20:47:16.071Z,85.76
2023-03-05T20:49:44.190Z,85.23
2023-03-05T20:52:12.927Z,82.76
2023-03-05T20:54:41.094Z,83.14
2023-03-05T20:57:11.020Z,81.71
2023-03-05T20:59:39.191Z,80.13
2023-03-05T21:02:07.388Z,83.92
2023-03-05T21:04:35.526Z,83.43
2023-03-05T21:07:04.242Z,84.46
2023-03-05T21:09:32.317Z,84.06
2023-03-05T21:12:00.567Z,83.55
2023-03-05T21:14:31.548Z,84.41
2023-03-05T21:16:59.618Z,83.35
2023-03-05T21:19:27.707Z,84.83
2023-03-05T21:21:56.075Z,86.21
2023-03-05T21:25:16.741Z,87.00
2023-03-05T21:27:45.052Z,87.79
2023-03-05T21:30:15.167Z,88.42
2023-03-05T21:32:43.251Z,86.32
2023-03-05T21:35:17.034Z,88.51
2023-03-05T21:37:45.980Z,88.80
2023-03-05T21:40:16.514Z,88.27
2023-03-05T21:42:45.267Z,89.10
2023-03-05T21:45:16.565Z,89.61
2023-03-05T21:47:45.025Z,89.13
2023-03-05T21:50:14.793Z,87.83
2023-03-05T21:52:43.494Z,88.25
2023-03-05T21:55:14.560Z,89.45
2023-03-05T21:57:42.754Z,88.59
2023-03-05T22:00:12.972Z,88.35
2023-03-05T22:02:43.329Z,86.68
2023-03-05T22:05:15.710Z,86.66
2023-03-05T22:07:44.769Z,85.28
2023-03-05T22:10:15.976Z,85.37
2023-03-05T22:13:12.646Z,83.81
2023-03-05T22:15:46.326Z,83.67
2023-03-05T22:18:18.177Z,83.88
2023-03-05T22:20:46.776Z,78.75
2023-03-05T22:23:15.511Z,81.63
2023-03-05T22:25:43.787Z,78.40
2023-03-05T22:28:13.360Z,80.87
2023-03-05T22:30:45.151Z,80.51
2023-03-05T22:33:13.644Z,82.30
2023-03-05T22:35:43.795Z,81.86
2023-03-05T22:38:12.482Z,80.16
2023-03-05T22:40:43.101Z,77.88
2023-03-05T22:43:11.299Z,80.89
2023-03-05T22:45:39.807Z,81.32
2023-03-05T22:48:09.976Z,79.96
2023-03-05T22:50:38.273Z,79.41
2023-03-05T22:53:07.998Z,81.15
2023-03-05T22:55:38.892Z,82.24
2023-03-05T22:58:07.037Z,83.78
2023-03-05T23:00:35.420Z,84.50
2023-03-05T23:03:03.583Z,82.29
2023-03-05T23:05:31.874Z,83.38
2023-03-05T23:07:59.961Z,84.85
2023-03-05T23:10:30.085Z,86.20
2023-03-05T23:13:00.143Z,84.70
2023-03-05T23:15:30.551Z,84.56
2023-03-05T23:17:58.970Z,85.34
2023-03-05T23:20:32.118Z,87.12
2023-03-05T23:23:00.380Z,88.73
2023-03-05T23:25:32.145Z,87.85
2023-03-05T23:28:01.224Z,90.05
2023-03-05T23:30:30.252Z,91.35
2023-03-05T23:33:00.115Z,92.83
2023-03-05T23:35:30.506Z,92.95
2023-03-05T23:38:00.144Z,94.45
2023-03-05T23:40:32.553Z,93.36
2023-03-05T23:43:01.587Z,92.02
2023-03-05T23:45:30.547Z,92.23
2023-03-05T23:47:59.284Z,92.26
2023-03-05T23:50:29.392Z,92.64
2023-03-05T23:52:59.479Z,92.31
2023-03-05T23:55:32.524Z,92.47
2023-03-05T23:58:01.148Z,91.99
